sensor_id;sensor_type;location;lat;lon;timestamp;temperature;humidity
53520;DHT22;39397;53.204;5.778;2022-09-27T00:00:23;10.80;99.90
53520;DHT22;39397;53.204;5.778;2022-09-27T00:02:49;9.50;99.90
53520;DHT22;39397;53.204;5.778;2022-09-27T00:05:15;9.60;99.90
53520;DHT22;39397;53.204;5.778;2022-09-27T00:07:41;9.40;99.90
53520;DHT22;39397;53.204;5.778;2022-09-27T00:10:07;9.70;99.90
53520;DHT22;39397;53.204;5.778;2022-09-27T00:12:34;10.80;99.90
53520;DHT22;39397;53.204;5.778;2022-09-27T00:15:00;9.40;99.90
53520;DHT22;39397;53.204;5.778;2022-09-27T00:17:27;9.50;99.90
53520;DHT22;39397;53.204;5.778;2022-09-27T00:19:53;10.90;99.90
53520;DHT22;39397;53.204;5.778;2022-09-27T00:22:21;9.50;99.90
53520;DHT22;39397;53.204;5.778;2022-09-27T00:24:47;9.30;99.90
53520;DHT22;39397;53.204;5.778;2022-09-27T00:27:13;9.80;99.90
53520;DHT22;39397;53.204;5.778;2022-09-27T00:29:39;10.30;99.90
53520;DHT22;39397;53.204;5.778;2022-09-27T00:32:04;9.10;99.90
53520;DHT22;39397;53.204;5.778;2022-09-27T00:34:30;10.50;99.90
53520;DHT22;39397;53.204;5.778;2022-09-27T00:36:56;9.20;99.90
53520;DHT22;39397;53.204;5.778;2022-09-27T00:39:21;10.40;99.90
53520;DHT22;39397;53.204;5.778;2022-09-27T00:41:47;9.30;99.90
53520;DHT22;39397;53.204;5.778;2022-09-27T00:47:19;9.10;99.90
53520;DHT22;39397;53.204;5.778;2022-09-27T00:52:30;9.00;99.90
53520;DHT22;39397;53.204;5.778;2022-09-27T00:55:03;9.00;99.90
53520;DHT22;39397;53.204;5.778;2022-09-27T00:57:31;9.70;99.90
53520;DHT22;39397;53.204;5.778;2022-09-27T01:00:04;10.60;99.90
53520;DHT22;39397;53.204;5.778;2022-09-27T01:02:31;10.20;99.90
53520;DHT22;39397;53.204;5.778;2022-09-27T01:04:57;9.20;99.90
53520;DHT22;39397;53.204;5.778;2022-09-27T01:07:23;9.20;99.90
53520;DHT22;39397;53.204;5.778;2022-09-27T01:09:49;9.60;99.90
53520;DHT22;39397;53.204;5.778;2022-09-27T01:37:53;9.10;99.90
53520;DHT22;39397;53.204;5.778;2022-09-27T01:40:45;9.00;99.90
53520;DHT22;39397;53.204;5.778;2022-09-27T01:43:17;8.90;99.90
53520;DHT22;39397;53.204;5.778;2022-09-27T01:46:00;10.90;99.90
53520;DHT22;39397;53.204;5.778;2022-09-27T01:48:32;10.10;99.90
53520;DHT22;39397;53.204;5.778;2022-09-27T01:51:15;10.10;99.90
53520;DHT22;39397;53.204;5.778;2022-09-27T01:53:44;9.20;99.90
53520;DHT22;39397;53.204;5.778;2022-09-27T01:56:20;10.00;99.90
53520;DHT22;39397;53.204;5.778;2022-09-27T01:59:06;9.40;99.90
53520;DHT22;39397;53.204;5.778;2022-09-27T02:01:35;9.10;99.90
53520;DHT22;39397;53.204;5.778;2022-09-27T02:04:04;9.30;99.90
53520;DHT22;39397;53.204;5.778;2022-09-27T02:06:39;9.20;99.90
53520;DHT22;39397;53.204;5.778;2022-09-27T02:09:22;9.50;99.90
53520;DHT22;39397;53.204;5.778;2022-09-27T02:11:52;9.00;99.90
53520;DHT22;39397;53.204;5.778;2022-09-27T02:17:04;8.90;99.90
53520;DHT22;39397;53.204;5.778;2022-09-27T02:19:39;9.70;99.90
53520;DHT22;39397;53.204;5.778;2022-09-27T02:24:53;9.90;99.90
53520;DHT22;39397;53.204;5.778;2022-09-27T02:27:25;8.70;99.90
53520;DHT22;39397;53.204;5.778;2022-09-27T02:30:07;9.20;99.90
53520;DHT22;39397;53.204;5.778;2022-09-27T02:32:35;8.60;99.90
53520;DHT22;39397;53.204;5.778;2022-09-27T02:35:04;8.60;99.90
53520;DHT22;39397;53.204;5.778;2022-09-27T02:37:32;8.60;99.90
53520;DHT22;39397;53.204;5.778;2022-09-27T02:39:58;9.80;99.90
53520;DHT22;39397;53.204;5.778;2022-09-27T02:42:25;8.80;99.90
53520;DHT22;39397;53.204;5.778;2022-09-27T02:44:52;9.40;99.90
53520;DHT22;39397;53.204;5.778;2022-09-27T02:55:18;8.80;99.90
53520;DHT22;39397;53.204;5.778;2022-09-27T03:00:47;8.70;99.90
53520;DHT22;39397;53.204;5.778;2022-09-27T03:03:41;8.60;99.90
53520;DHT22;39397;53.204;5.778;2022-09-27T03:06:10;8.70;99.90
53520;DHT22;39397;53.204;5.778;2022-09-27T03:08:38;9.50;99.90
53520;DHT22;39397;53.204;5.778;2022-09-27T03:11:04;9.50;99.90
53520;DHT22;39397;53.204;5.778;2022-09-27T03:13:30;8.90;99.90
53520;DHT22;39397;53.204;5.778;2022-09-27T03:15:56;9.50;99.90
53520;DHT22;39397;53.204;5.778;2022-09-27T03:18:21;8.60;99.90
53520;DHT22;39397;53.204;5.778;2022-09-27T03:20:47;9.40;99.90
53520;DHT22;39397;53.204;5.778;2022-09-27T03:23:13;9.80;99.90
53520;DHT22;39397;53.204;5.778;2022-09-27T03:25:39;8.50;99.90
53520;DHT22;39397;53.204;5.778;2022-09-27T03:28:05;9.70;99.90
53520;DHT22;39397;53.204;5.778;2022-09-27T03:30:31;9.90;99.90
53520;DHT22;39397;53.204;5.778;2022-09-27T03:32:57;8.60;99.90
53520;DHT22;39397;53.204;5.778;2022-09-27T03:35:22;9.80;99.90
53520;DHT22;39397;53.204;5.778;2022-09-27T03:37:48;9.00;99.90
53520;DHT22;39397;53.204;5.778;2022-09-27T03:40:14;10.20;99.90
53520;DHT22;39397;53.204;5.778;2022-09-27T03:42:39;8.80;99.90
53520;DHT22;39397;53.204;5.778;2022-09-27T03:45:06;10.50;99.90
53520;DHT22;39397;53.204;5.778;2022-09-27T03:47:31;7.90;99.90
53520;DHT22;39397;53.204;5.778;2022-09-27T03:49:57;9.00;99.90
53520;DHT22;39397;53.204;5.778;2022-09-27T03:52:23;9.50;99.90
53520;DHT22;39397;53.204;5.778;2022-09-27T03:54:48;8.80;99.90
53520;DHT22;39397;53.204;5.778;2022-09-27T03:57:14;8.90;99.90
53520;DHT22;39397;53.204;5.778;2022-09-27T03:59:40;8.90;99.90
53520;DHT22;39397;53.204;5.778;2022-09-27T04:02:06;9.00;99.90
53520;DHT22;39397;53.204;5.778;2022-09-27T04:04:31;9.10;99.90
53520;DHT22;39397;53.204;5.778;2022-09-27T04:06:57;9.10;99.90
53520;DHT22;39397;53.204;5.778;2022-09-27T04:09:24;8.80;99.90
53520;DHT22;39397;53.204;5.778;2022-09-27T04:11:49;9.10;99.90
53520;DHT22;39397;53.204;5.778;2022-09-27T04:14:15;9.90;99.90
53520;DHT22;39397;53.204;5.778;2022-09-27T04:16:41;8.90;99.90
53520;DHT22;39397;53.204;5.778;2022-09-27T04:19:07;9.40;99.90
53520;DHT22;39397;53.204;5.778;2022-09-27T04:21:33;10.10;99.90
53520;DHT22;39397;53.204;5.778;2022-09-27T04:23:59;10.60;99.90
53520;DHT22;39397;53.204;5.778;2022-09-27T04:26:25;8.80;99.90
53520;DHT22;39397;53.204;5.778;2022-09-27T04:28:52;8.80;99.90
53520;DHT22;39397;53.204;5.778;2022-09-27T04:31:18;8.90;99.90
53520;DHT22;39397;53.204;5.778;2022-09-27T04:33:44;9.00;99.90
53520;DHT22;39397;53.204;5.778;2022-09-27T04:36:16;9.00;99.90
53520;DHT22;39397;53.204;5.778;2022-09-27T04:38:57;9.90;99.90
53520;DHT22;39397;53.204;5.778;2022-09-27T04:41:23;8.90;99.90
53520;DHT22;39397;53.204;5.778;2022-09-27T04:43:53;8.80;99.90
53520;DHT22;39397;53.204;5.778;2022-09-27T04:46:19;8.90;99.90
53520;DHT22;39397;53.204;5.778;2022-09-27T04:48:46;9.20;99.90
53520;DHT22;39397;53.204;5.778;2022-09-27T04:51:12;9.70;99.90
53520;DHT22;39397;53.204;5.778;2022-09-27T04:53:40;8.80;99.90
53520;DHT22;39397;53.204;5.778;2022-09-27T04:56:06;9.10;99.90
53520;DHT22;39397;53.204;5.778;2022-09-27T04:58:33;8.90;99.90
53520;DHT22;39397;53.204;5.778;2022-09-27T05:00:59;10.40;99.90
53520;DHT22;39397;53.204;5.778;2022-09-27T05:03:26;8.80;99.90
53520;DHT22;39397;53.204;5.778;2022-09-27T05:05:52;9.20;99.90
53520;DHT22;39397;53.204;5.778;2022-09-27T05:08:18;9.10;99.90
53520;DHT22;39397;53.204;5.778;2022-09-27T05:10:46;8.80;99.90
53520;DHT22;39397;53.204;5.778;2022-09-27T05:13:12;10.70;99.90
53520;DHT22;39397;53.204;5.778;2022-09-27T05:15:38;9.60;99.90
53520;DHT22;39397;53.204;5.778;2022-09-27T05:18:04;10.20;99.90
53520;DHT22;39397;53.204;5.778;2022-09-27T05:20:33;8.80;99.90
53520;DHT22;39397;53.204;5.778;2022-09-27T05:22:59;8.80;99.90
53520;DHT22;39397;53.204;5.778;2022-09-27T05:25:25;8.80;99.90
53520;DHT22;39397;53.204;5.778;2022-09-27T05:27:51;10.10;99.90
53520;DHT22;39397;53.204;5.778;2022-09-27T05:30:17;9.20;99.90
53520;DHT22;39397;53.204;5.778;2022-09-27T05:32:43;9.40;99.90
53520;DHT22;39397;53.204;5.778;2022-09-27T05:35:14;8.70;99.90
53520;DHT22;39397;53.204;5.778;2022-09-27T05:37:39;8.80;99.90
53520;DHT22;39397;53.204;5.778;2022-09-27T05:40:06;9.60;99.90
53520;DHT22;39397;53.204;5.778;2022-09-27T05:42:31;8.80;99.90
53520;DHT22;39397;53.204;5.778;2022-09-27T05:44:59;10.20;99.90
53520;DHT22;39397;53.204;5.778;2022-09-27T05:47:24;8.90;99.90
53520;DHT22;39397;53.204;5.778;2022-09-27T05:49:50;8.90;99.90
53520;DHT22;39397;53.204;5.778;2022-09-27T05:52:16;10.20;99.90
53520;DHT22;39397;53.204;5.778;2022-09-27T05:54:42;10.10;99.90
53520;DHT22;39397;53.204;5.778;2022-09-27T05:57:08;10.60;99.90
53520;DHT22;39397;53.204;5.778;2022-09-27T05:59:34;8.90;99.90
53520;DHT22;39397;53.204;5.778;2022-09-27T06:01:59;9.00;99.90
53520;DHT22;39397;53.204;5.778;2022-09-27T06:04:26;9.00;99.90
53520;DHT22;39397;53.204;5.778;2022-09-27T06:06:52;9.20;99.90
53520;DHT22;39397;53.204;5.778;2022-09-27T06:09:17;10.10;99.90
53520;DHT22;39397;53.204;5.778;2022-09-27T06:11:43;9.10;99.90
53520;DHT22;39397;53.204;5.778;2022-09-27T06:14:10;9.70;99.90
53520;DHT22;39397;53.204;5.778;2022-09-27T06:16:36;9.20;99.90
53520;DHT22;39397;53.204;5.778;2022-09-27T06:19:02;9.30;99.90
53520;DHT22;39397;53.204;5.778;2022-09-27T06:21:29;9.20;99.90
53520;DHT22;39397;53.204;5.778;2022-09-27T06:23:57;9.70;99.90
53520;DHT22;39397;53.204;5.778;2022-09-27T06:26:25;10.30;99.90
53520;DHT22;39397;53.204;5.778;2022-09-27T06:28:53;9.40;99.90
53520;DHT22;39397;53.204;5.778;2022-09-27T06:31:19;9.40;99.90
53520;DHT22;39397;53.204;5.778;2022-09-27T06:33:46;9.60;99.90
53520;DHT22;39397;53.204;5.778;2022-09-27T06:36:12;10.90;99.90
53520;DHT22;39397;53.204;5.778;2022-09-27T06:38:38;10.80;99.90
53520;DHT22;39397;53.204;5.778;2022-09-27T06:41:04;11.00;99.90
53520;DHT22;39397;53.204;5.778;2022-09-27T06:43:34;9.80;99.90
53520;DHT22;39397;53.204;5.778;2022-09-27T06:46:01;10.40;99.90
53520;DHT22;39397;53.204;5.778;2022-09-27T06:48:31;11.10;99.90
53520;DHT22;39397;53.204;5.778;2022-09-27T06:50:57;10.00;99.90
53520;DHT22;39397;53.204;5.778;2022-09-27T06:53:24;10.00;99.90
53520;DHT22;39397;53.204;5.778;2022-09-27T06:55:50;10.00;99.90
53520;DHT22;39397;53.204;5.778;2022-09-27T06:58:16;10.00;99.90
53520;DHT22;39397;53.204;5.778;2022-09-27T07:01:01;10.90;99.90
53520;DHT22;39397;53.204;5.778;2022-09-27T07:03:27;10.20;99.90
53520;DHT22;39397;53.204;5.778;2022-09-27T07:06:04;10.30;99.90
53520;DHT22;39397;53.204;5.778;2022-09-27T07:08:31;10.30;99.90
53520;DHT22;39397;53.204;5.778;2022-09-27T07:11:05;10.20;99.90
53520;DHT22;39397;53.204;5.778;2022-09-27T07:13:32;10.10;99.90
53520;DHT22;39397;53.204;5.778;2022-09-27T07:15:59;10.00;99.90
53520;DHT22;39397;53.204;5.778;2022-09-27T07:18:26;9.90;99.90
53520;DHT22;39397;53.204;5.778;2022-09-27T07:20:52;9.80;99.90
53520;DHT22;39397;53.204;5.778;2022-09-27T07:23:18;11.00;99.90
53520;DHT22;39397;53.204;5.778;2022-09-27T07:25:45;10.70;99.90
53520;DHT22;39397;53.204;5.778;2022-09-27T07:28:16;10.00;99.90
53520;DHT22;39397;53.204;5.778;2022-09-27T07:30:42;10.70;99.90
53520;DHT22;39397;53.204;5.778;2022-09-27T07:33:09;9.70;99.90
53520;DHT22;39397;53.204;5.778;2022-09-27T07:35:37;9.70;99.90
53520;DHT22;39397;53.204;5.778;2022-09-27T07:38:05;9.70;99.90
53520;DHT22;39397;53.204;5.778;2022-09-27T07:40:33;9.90;99.90
53520;DHT22;39397;53.204;5.778;2022-09-27T07:42:58;10.70;99.90
53520;DHT22;39397;53.204;5.778;2022-09-27T07:45:25;10.00;99.90
53520;DHT22;39397;53.204;5.778;2022-09-27T07:47:51;10.30;99.90
53520;DHT22;39397;53.204;5.778;2022-09-27T07:50:18;11.40;99.90
53520;DHT22;39397;53.204;5.778;2022-09-27T07:52:48;9.90;99.90
53520;DHT22;39397;53.204;5.778;2022-09-27T07:55:16;9.90;99.90
53520;DHT22;39397;53.204;5.778;2022-09-27T07:57:42;9.60;99.90
53520;DHT22;39397;53.204;5.778;2022-09-27T08:00:15;9.70;99.90
53520;DHT22;39397;53.204;5.778;2022-09-27T08:02:42;9.50;99.90
53520;DHT22;39397;53.204;5.778;2022-09-27T08:05:09;10.70;99.90
53520;DHT22;39397;53.204;5.778;2022-09-27T08:07:36;9.70;99.90
53520;DHT22;39397;53.204;5.778;2022-09-27T08:10:07;9.80;99.90
53520;DHT22;39397;53.204;5.778;2022-09-27T08:12:34;9.80;99.90
53520;DHT22;39397;53.204;5.778;2022-09-27T08:14:59;10.50;99.90
53520;DHT22;39397;53.204;5.778;2022-09-27T08:17:30;10.00;99.90
53520;DHT22;39397;53.204;5.778;2022-09-27T08:19:56;10.10;99.90
53520;DHT22;39397;53.204;5.778;2022-09-27T08:22:25;10.00;99.90
53520;DHT22;39397;53.204;5.778;2022-09-27T08:24:51;10.20;99.90
53520;DHT22;39397;53.204;5.778;2022-09-27T08:27:16;11.00;99.90
53520;DHT22;39397;53.204;5.778;2022-09-27T08:29:42;10.60;99.90
53520;DHT22;39397;53.204;5.778;2022-09-27T08:32:09;10.80;99.90
53520;DHT22;39397;53.204;5.778;2022-09-27T08:34:35;10.60;99.90
53520;DHT22;39397;53.204;5.778;2022-09-27T08:37:01;11.30;99.90
53520;DHT22;39397;53.204;5.778;2022-09-27T08:39:27;11.50;99.90
53520;DHT22;39397;53.204;5.778;2022-09-27T08:47:16;10.50;99.90
53520;DHT22;39397;53.204;5.778;2022-09-27T08:52:21;11.00;99.90
53520;DHT22;39397;53.204;5.778;2022-09-27T08:54:48;10.20;99.90
53520;DHT22;39397;53.204;5.778;2022-09-27T08:57:14;11.10;99.90
53520;DHT22;39397;53.204;5.778;2022-09-27T09:00:07;10.30;99.90
53520;DHT22;39397;53.204;5.778;2022-09-27T09:02:36;10.50;99.90
53520;DHT22;39397;53.204;5.778;2022-09-27T09:10:38;10.90;99.90
53520;DHT22;39397;53.204;5.778;2022-09-27T09:23:58;11.50;99.90
53520;DHT22;39397;53.204;5.778;2022-09-27T09:32:37;11.70;99.90
53520;DHT22;39397;53.204;5.778;2022-09-27T09:35:35;11.70;99.90
53520;DHT22;39397;53.204;5.778;2022-09-27T09:38:02;11.70;99.90
53520;DHT22;39397;53.204;5.778;2022-09-27T09:43:25;11.40;99.90
53520;DHT22;39397;53.204;5.778;2022-09-27T09:46:01;11.20;99.90
53520;DHT22;39397;53.204;5.778;2022-09-27T09:51:00;10.90;99.90
53520;DHT22;39397;53.204;5.778;2022-09-27T09:53:38;10.80;99.90
53520;DHT22;39397;53.204;5.778;2022-09-27T09:56:28;10.80;99.90
53520;DHT22;39397;53.204;5.778;2022-09-27T09:59:14;11.80;99.90
53520;DHT22;39397;53.204;5.778;2022-09-27T10:01:44;10.60;99.90
53520;DHT22;39397;53.204;5.778;2022-09-27T10:04:21;10.60;99.90
53520;DHT22;39397;53.204;5.778;2022-09-27T10:06:48;10.70;99.90
53520;DHT22;39397;53.204;5.778;2022-09-27T10:09:15;10.60;99.90
53520;DHT22;39397;53.204;5.778;2022-09-27T10:11:44;10.70;99.90
53520;DHT22;39397;53.204;5.778;2022-09-27T10:14:12;10.70;99.90
53520;DHT22;39397;53.204;5.778;2022-09-27T10:16:40;10.90;99.90
53520;DHT22;39397;53.204;5.778;2022-09-27T10:19:08;10.90;99.90
53520;DHT22;39397;53.204;5.778;2022-09-27T10:21:39;10.80;99.90
53520;DHT22;39397;53.204;5.778;2022-09-27T10:24:17;11.00;99.90
53520;DHT22;39397;53.204;5.778;2022-09-27T10:26:45;11.90;99.90
53520;DHT22;39397;53.204;5.778;2022-09-27T10:29:30;10.80;99.90
53520;DHT22;39397;53.204;5.778;2022-09-27T10:31:58;10.80;99.90
53520;DHT22;39397;53.204;5.778;2022-09-27T10:39:30;10.70;99.90
53520;DHT22;39397;53.204;5.778;2022-09-27T10:41:56;10.70;99.90
53520;DHT22;39397;53.204;5.778;2022-09-27T10:44:25;11.10;99.90
53520;DHT22;39397;53.204;5.778;2022-09-27T10:46:54;10.90;99.90
53520;DHT22;39397;53.204;5.778;2022-09-27T10:51:54;11.40;99.90
53520;DHT22;39397;53.204;5.778;2022-09-27T10:54:24;11.50;99.90
53520;DHT22;39397;53.204;5.778;2022-09-27T10:57:21;12.50;99.90
53520;DHT22;39397;53.204;5.778;2022-09-27T11:00:29;11.80;99.90
53520;DHT22;39397;53.204;5.778;2022-09-27T11:03:00;11.60;99.90
53520;DHT22;39397;53.204;5.778;2022-09-27T11:05:32;11.40;99.90
53520;DHT22;39397;53.204;5.778;2022-09-27T11:08:00;11.40;99.90
53520;DHT22;39397;53.204;5.778;2022-09-27T11:10:33;11.60;99.90
53520;DHT22;39397;53.204;5.778;2022-09-27T11:13:20;11.70;99.90
53520;DHT22;39397;53.204;5.778;2022-09-27T11:21:37;13.40;99.90
53520;DHT22;39397;53.204;5.778;2022-09-27T11:27:06;11.60;99.90
53520;DHT22;39397;53.204;5.778;2022-09-27T11:57:21;12.00;99.90
53520;DHT22;39397;53.204;5.778;2022-09-27T12:11:48;11.50;99.90
53520;DHT22;39397;53.204;5.778;2022-09-27T12:16:41;10.30;99.90
53520;DHT22;39397;53.204;5.778;2022-09-27T12:19:17;11.30;99.90
53520;DHT22;39397;53.204;5.778;2022-09-27T12:21:44;10.40;99.90
53520;DHT22;39397;53.204;5.778;2022-09-27T12:24:18;10.70;99.90
53520;DHT22;39397;53.204;5.778;2022-09-27T12:26:47;12.10;99.90
53520;DHT22;39397;53.204;5.778;2022-09-27T12:35:07;10.70;99.90
53520;DHT22;39397;53.204;5.778;2022-09-27T12:40:27;10.10;99.90
53520;DHT22;39397;53.204;5.778;2022-09-27T12:43:29;9.80;99.90
53520;DHT22;39397;53.204;5.778;2022-09-27T12:51:16;9.30;99.90
53520;DHT22;39397;53.204;5.778;2022-09-27T13:12:30;9.70;99.90
53520;DHT22;39397;53.204;5.778;2022-09-27T13:22:53;10.00;99.90
53520;DHT22;39397;53.204;5.778;2022-09-27T13:25:51;9.90;99.90
53520;DHT22;39397;53.204;5.778;2022-09-27T13:30:58;10.20;99.90
53520;DHT22;39397;53.204;5.778;2022-09-27T13:36:06;10.20;99.90
53520;DHT22;39397;53.204;5.778;2022-09-27T13:38:32;10.30;99.90
53520;DHT22;39397;53.204;5.778;2022-09-27T13:41:17;10.60;99.90
53520;DHT22;39397;53.204;5.778;2022-09-27T13:46:32;10.50;99.90
53520;DHT22;39397;53.204;5.778;2022-09-27T13:49:18;10.80;99.90
53520;DHT22;39397;53.204;5.778;2022-09-27T13:51:49;10.40;99.90
53520;DHT22;39397;53.204;5.778;2022-09-27T14:00:05;10.70;99.90
53520;DHT22;39397;53.204;5.778;2022-09-27T14:05:18;11.50;99.90
53520;DHT22;39397;53.204;5.778;2022-09-27T14:07:45;10.90;99.90
53520;DHT22;39397;53.204;5.778;2022-09-27T14:10:17;11.00;99.90
53520;DHT22;39397;53.204;5.778;2022-09-27T14:12:47;10.90;99.90
53520;DHT22;39397;53.204;5.778;2022-09-27T14:15:28;10.90;99.90
53520;DHT22;39397;53.204;5.778;2022-09-27T14:17:56;11.00;99.90
53520;DHT22;39397;53.204;5.778;2022-09-27T14:20:39;10.90;99.90
53520;DHT22;39397;53.204;5.778;2022-09-27T14:23:22;11.30;99.90
53520;DHT22;39397;53.204;5.778;2022-09-27T14:25:53;10.90;99.90
53520;DHT22;39397;53.204;5.778;2022-09-27T14:28:27;12.00;99.90
53520;DHT22;39397;53.204;5.778;2022-09-27T14:33:35;11.10;99.90
53520;DHT22;39397;53.204;5.778;2022-09-27T14:36:01;11.00;99.90
53520;DHT22;39397;53.204;5.778;2022-09-27T14:38:47;11.60;99.90
53520;DHT22;39397;53.204;5.778;2022-09-27T14:41:13;11.20;99.90
53520;DHT22;39397;53.204;5.778;2022-09-27T14:43:45;10.90;99.90
53520;DHT22;39397;53.204;5.778;2022-09-27T14:46:26;10.90;99.90
53520;DHT22;39397;53.204;5.778;2022-09-27T14:48:52;12.20;99.90
53520;DHT22;39397;53.204;5.778;2022-09-27T14:51:25;12.10;99.90
53520;DHT22;39397;53.204;5.778;2022-09-27T14:53:53;10.90;99.90
53520;DHT22;39397;53.204;5.778;2022-09-27T14:56:32;12.70;99.90
53520;DHT22;39397;53.204;5.778;2022-09-27T14:59:06;10.90;99.90
53520;DHT22;39397;53.204;5.778;2022-09-27T15:01:35;10.90;99.90
53520;DHT22;39397;53.204;5.778;2022-09-27T15:04:06;11.10;99.90
53520;DHT22;39397;53.204;5.778;2022-09-27T15:06:36;12.40;99.90
53520;DHT22;39397;53.204;5.778;2022-09-27T15:09:03;11.10;99.90
53520;DHT22;39397;53.204;5.778;2022-09-27T15:11:29;12.20;99.90
53520;DHT22;39397;53.204;5.778;2022-09-27T15:13:59;11.80;99.90
53520;DHT22;39397;53.204;5.778;2022-09-27T15:16:27;11.50;99.90
53520;DHT22;39397;53.204;5.778;2022-09-27T15:19:12;11.10;99.90
53520;DHT22;39397;53.204;5.778;2022-09-27T15:21:38;11.20;99.90
53520;DHT22;39397;53.204;5.778;2022-09-27T15:24:04;11.80;99.90
53520;DHT22;39397;53.204;5.778;2022-09-27T15:26:35;11.00;99.90
53520;DHT22;39397;53.204;5.778;2022-09-27T15:29:01;11.00;99.90
53520;DHT22;39397;53.204;5.778;2022-09-27T15:31:28;11.50;99.90
53520;DHT22;39397;53.204;5.778;2022-09-27T15:33:56;11.20;99.90
53520;DHT22;39397;53.204;5.778;2022-09-27T15:36:57;12.10;99.90
53520;DHT22;39397;53.204;5.778;2022-09-27T15:39:31;11.50;99.90
53520;DHT22;39397;53.204;5.778;2022-09-27T15:42:17;11.90;99.90
53520;DHT22;39397;53.204;5.778;2022-09-27T15:44:47;10.30;99.90
53520;DHT22;39397;53.204;5.778;2022-09-27T15:52:44;9.70;99.90
53520;DHT22;39397;53.204;5.778;2022-09-27T15:55:15;9.60;99.90
53520;DHT22;39397;53.204;5.778;2022-09-27T15:57:43;10.30;99.90
53520;DHT22;39397;53.204;5.778;2022-09-27T16:00:14;10.60;99.90
53520;DHT22;39397;53.204;5.778;2022-09-27T16:02:45;9.30;99.90
53520;DHT22;39397;53.204;5.778;2022-09-27T16:05:11;9.60;99.90
53520;DHT22;39397;53.204;5.778;2022-09-27T16:07:37;9.10;99.90
53520;DHT22;39397;53.204;5.778;2022-09-27T16:10:30;9.60;99.90
53520;DHT22;39397;53.204;5.778;2022-09-27T16:12:59;9.00;99.90
53520;DHT22;39397;53.204;5.778;2022-09-27T16:15:25;9.80;99.90
53520;DHT22;39397;53.204;5.778;2022-09-27T16:17:51;8.90;99.90
53520;DHT22;39397;53.204;5.778;2022-09-27T16:20:19;9.00;99.90
53520;DHT22;39397;53.204;5.778;2022-09-27T16:22:47;9.40;99.90
53520;DHT22;39397;53.204;5.778;2022-09-27T16:25:13;9.30;99.90
53520;DHT22;39397;53.204;5.778;2022-09-27T16:27:39;8.70;99.90
53520;DHT22;39397;53.204;5.778;2022-09-27T16:30:05;8.80;99.90
53520;DHT22;39397;53.204;5.778;2022-09-27T16:32:32;8.60;99.90
53520;DHT22;39397;53.204;5.778;2022-09-27T16:34:58;9.80;99.90
53520;DHT22;39397;53.204;5.778;2022-09-27T16:37:24;8.90;99.90
53520;DHT22;39397;53.204;5.778;2022-09-27T16:39:50;9.60;99.90
53520;DHT22;39397;53.204;5.778;2022-09-27T16:42:15;8.80;99.90
53520;DHT22;39397;53.204;5.778;2022-09-27T16:44:41;8.60;99.90
53520;DHT22;39397;53.204;5.778;2022-09-27T16:47:08;8.30;99.90
53520;DHT22;39397;53.204;5.778;2022-09-27T16:49:33;8.30;99.90
53520;DHT22;39397;53.204;5.778;2022-09-27T16:52:17;9.60;99.90
53520;DHT22;39397;53.204;5.778;2022-09-27T16:54:43;9.00;99.90
53520;DHT22;39397;53.204;5.778;2022-09-27T16:57:09;8.40;99.90
53520;DHT22;39397;53.204;5.778;2022-09-27T16:59:35;9.50;99.90
53520;DHT22;39397;53.204;5.778;2022-09-27T17:02:00;8.10;99.90
53520;DHT22;39397;53.204;5.778;2022-09-27T17:04:29;9.40;99.90
53520;DHT22;39397;53.204;5.778;2022-09-27T17:06:55;8.10;99.90
53520;DHT22;39397;53.204;5.778;2022-09-27T17:09:21;8.50;99.90
53520;DHT22;39397;53.204;5.778;2022-09-27T17:11:47;8.90;99.90
53520;DHT22;39397;53.204;5.778;2022-09-27T17:14:14;9.20;99.90
53520;DHT22;39397;53.204;5.778;2022-09-27T17:16:42;9.00;99.90
53520;DHT22;39397;53.204;5.778;2022-09-27T17:19:08;8.70;99.90
53520;DHT22;39397;53.204;5.778;2022-09-27T17:21:37;8.10;99.90
53520;DHT22;39397;53.204;5.778;2022-09-27T17:24:03;8.20;99.90
53520;DHT22;39397;53.204;5.778;2022-09-27T17:26:29;8.20;99.90
53520;DHT22;39397;53.204;5.778;2022-09-27T17:28:57;9.00;99.90
53520;DHT22;39397;53.204;5.778;2022-09-27T17:31:23;8.80;99.90
53520;DHT22;39397;53.204;5.778;2022-09-27T17:33:50;8.90;99.90
53520;DHT22;39397;53.204;5.778;2022-09-27T17:36:22;8.10;99.90
53520;DHT22;39397;53.204;5.778;2022-09-27T17:38:49;8.20;99.90
53520;DHT22;39397;53.204;5.778;2022-09-27T17:41:17;8.20;99.90
53520;DHT22;39397;53.204;5.778;2022-09-27T17:43:44;8.70;99.90
53520;DHT22;39397;53.204;5.778;2022-09-27T17:46:19;8.90;99.90
53520;DHT22;39397;53.204;5.778;2022-09-27T17:48:45;9.50;99.90
53520;DHT22;39397;53.204;5.778;2022-09-27T17:51:30;8.20;99.90
53520;DHT22;39397;53.204;5.778;2022-09-27T17:53:56;8.30;99.90
53520;DHT22;39397;53.204;5.778;2022-09-27T17:56:22;9.40;99.90
53520;DHT22;39397;53.204;5.778;2022-09-27T17:58:49;8.20;99.90
53520;DHT22;39397;53.204;5.778;2022-09-27T18:01:16;8.20;99.90
53520;DHT22;39397;53.204;5.778;2022-09-27T18:03:43;8.40;99.90
53520;DHT22;39397;53.204;5.778;2022-09-27T18:06:11;9.20;99.90
53520;DHT22;39397;53.204;5.778;2022-09-27T18:08:37;8.20;99.90
53520;DHT22;39397;53.204;5.778;2022-09-27T18:11:12;8.20;99.90
53520;DHT22;39397;53.204;5.778;2022-09-27T18:13:39;8.20;99.90
53520;DHT22;39397;53.204;5.778;2022-09-27T18:16:10;8.20;99.90
53520;DHT22;39397;53.204;5.778;2022-09-27T18:18:38;8.20;99.90
53520;DHT22;39397;53.204;5.778;2022-09-27T18:21:06;8.20;99.90
53520;DHT22;39397;53.204;5.778;2022-09-27T18:23:34;8.20;99.90
53520;DHT22;39397;53.204;5.778;2022-09-27T18:25:59;9.40;99.90
53520;DHT22;39397;53.204;5.778;2022-09-27T18:28:28;10.00;99.90
53520;DHT22;39397;53.204;5.778;2022-09-27T18:30:54;9.20;99.90
53520;DHT22;39397;53.204;5.778;2022-09-27T18:33:25;8.20;99.90
53520;DHT22;39397;53.204;5.778;2022-09-27T18:35:50;8.30;99.90
53520;DHT22;39397;53.204;5.778;2022-09-27T18:38:16;8.30;99.90
53520;DHT22;39397;53.204;5.778;2022-09-27T18:40:42;8.40;99.90
53520;DHT22;39397;53.204;5.778;2022-09-27T18:43:07;8.40;99.90
53520;DHT22;39397;53.204;5.778;2022-09-27T18:45:36;9.60;99.90
53520;DHT22;39397;53.204;5.778;2022-09-27T18:48:04;8.40;99.90
53520;DHT22;39397;53.204;5.778;2022-09-27T18:50:34;8.10;99.90
53520;DHT22;39397;53.204;5.778;2022-09-27T18:53:01;8.10;99.90
53520;DHT22;39397;53.204;5.778;2022-09-27T18:55:26;8.20;99.90
53520;DHT22;39397;53.204;5.778;2022-09-27T18:57:52;8.70;99.90
53520;DHT22;39397;53.204;5.778;2022-09-27T19:00:18;9.80;99.90
53520;DHT22;39397;53.204;5.778;2022-09-27T19:02:43;8.40;99.90
53520;DHT22;39397;53.204;5.778;2022-09-27T19:05:12;8.20;99.90
53520;DHT22;39397;53.204;5.778;2022-09-27T19:07:38;9.50;99.90
53520;DHT22;39397;53.204;5.778;2022-09-27T19:10:05;8.30;99.90
53520;DHT22;39397;53.204;5.778;2022-09-27T19:12:31;8.30;99.90
53520;DHT22;39397;53.204;5.778;2022-09-27T19:14:57;9.30;99.90
53520;DHT22;39397;53.204;5.778;2022-09-27T19:17:23;8.30;99.90
53520;DHT22;39397;53.204;5.778;2022-09-27T19:19:49;8.50;99.90